createdAt,value
2023-01-22T00:00:35.109Z,101673.09
2023-01-22T00:03:01.620Z,101663.78
2023-01-22T00:05:27.793Z,101667.13
2023-01-22T00:07:54.041Z,101661.13
2023-01-22T00:10:20.562Z,101655.19
2023-01-22T00:12:47.095Z,101654.38
2023-01-22T00:15:13.434Z,101660.38
2023-01-22T00:17:39.737Z,101661.19
2023-01-22T00:20:05.956Z,101652.59
2023-01-22T00:22:32.205Z,101656.88
2023-01-22T00:24:58.518Z,101659.50
2023-01-22T00:27:24.774Z,101653.50
2023-01-22T00:29:51.090Z,101653.50
2023-01-22T00:32:20.582Z,101656.06
2023-01-22T00:34:46.859Z,101657.81
2023-01-22T00:37:13.170Z,101647.47
2023-01-22T00:39:39.389Z,101642.47
2023-01-22T00:42:05.720Z,101639.06
2023-01-22T00:44:31.948Z,101638.13
2023-01-22T00:46:58.239Z,101636.44
2023-01-22T00:49:27.538Z,101629.56
2023-01-22T00:51:53.787Z,101636.44
2023-01-22T00:54:20.021Z,101633.00
2023-01-22T00:56:46.373Z,101635.59
2023-01-22T00:59:12.612Z,101639.91
2023-01-22T01:01:38.916Z,101634.03
2023-01-22T01:04:05.336Z,101623.66
2023-01-22T01:06:31.574Z,101627.91
2023-01-22T01:08:57.803Z,101631.34
2023-01-22T01:11:24.018Z,101631.38
2023-01-22T01:13:50.255Z,101631.38
2023-01-22T01:16:18.943Z,101627.09
2023-01-22T01:18:45.265Z,101633.09
2023-01-22T01:21:11.529Z,101630.59
2023-01-22T01:23:40.523Z,101628.06
2023-01-22T01:26:06.884Z,101630.66
2023-01-22T01:28:33.108Z,101632.41
2023-01-22T01:30:59.398Z,101633.22
2023-01-22T01:33:25.734Z,101634.16
2023-01-22T01:35:51.976Z,101634.13
2023-01-22T01:38:18.187Z,101629.00
2023-01-22T01:40:44.400Z,101631.56
2023-01-22T01:43:10.651Z,101633.34
2023-01-22T01:45:36.937Z,101641.91
2023-01-22T01:48:03.163Z,101630.72
2023-01-22T01:50:29.375Z,101635.13
2023-01-22T01:52:55.613Z,101622.28
2023-01-22T01:55:21.847Z,101629.97
2023-01-22T01:57:50.152Z,101624.84
2023-01-22T02:00:16.670Z,101621.41
2023-01-22T02:02:43.003Z,101623.16
2023-01-22T02:05:09.235Z,101631.66
2023-01-22T02:07:35.549Z,101630.91
2023-01-22T02:10:01.823Z,101628.31
2023-01-22T02:12:28.055Z,101613.78
2023-01-22T02:14:54.344Z,101618.06
2023-01-22T02:17:20.585Z,101620.63
2023-01-22T02:19:46.823Z,101623.22
2023-01-22T02:22:13.129Z,101619.75
2023-01-22T02:24:39.449Z,101616.44
2023-01-22T02:27:05.712Z,101615.53
2023-01-22T02:29:32.007Z,101610.44
2023-01-22T02:31:58.254Z,101613.00
2023-01-22T02:34:24.601Z,101611.31
2023-01-22T02:36:50.899Z,101603.59
2023-01-22T02:39:20.009Z,101603.56
2023-01-22T02:41:47.983Z,101603.59
2023-01-22T02:44:14.261Z,101601.91
2023-01-22T02:46:40.485Z,101601.00
2023-01-22T02:49:06.688Z,101598.44
2023-01-22T02:51:32.943Z,101600.16
2023-01-22T02:53:59.243Z,101599.34
2023-01-22T02:56:26.335Z,101604.41
2023-01-22T02:58:52.591Z,101600.19
2023-01-22T03:01:18.996Z,101603.59
2023-01-22T03:03:45.400Z,101601.91
2023-01-22T03:06:12.027Z,101605.28
2023-01-22T03:08:38.467Z,101601.94
2023-01-22T03:11:04.719Z,101601.97
2023-01-22T03:13:30.885Z,101603.66
2023-01-22T03:15:57.311Z,101600.19
2023-01-22T03:18:23.530Z,101601.97
2023-01-22T03:20:49.732Z,101610.50
2023-01-22T03:23:19.687Z,101601.13
2023-01-22T03:25:45.904Z,101596.91
2023-01-22T03:28:12.134Z,101598.59
2023-01-22T03:30:38.358Z,101591.84
2023-01-22T03:33:05.652Z,101588.34
2023-01-22T03:35:32.928Z,101585.84
2023-01-22T03:37:59.201Z,101590.13
2023-01-22T03:40:25.440Z,101584.09
2023-01-22T03:42:51.702Z,101581.59
2023-01-22T03:45:17.931Z,101583.28
2023-01-22T03:47:44.153Z,101585.00
2023-01-22T03:50:10.381Z,101577.31
2023-01-22T03:52:36.631Z,101588.47
2023-01-22T03:55:02.882Z,101581.69
2023-01-22T03:57:29.145Z,101583.34
2023-01-22T03:59:55.350Z,101583.34
2023-01-22T04:02:21.603Z,101587.59
2023-01-22T04:04:47.973Z,101580.75
2023-01-22T04:07:14.261Z,101588.47
2023-01-22T04:09:40.478Z,101592.78
2023-01-22T04:12:06.733Z,101585.94
2023-01-22T04:14:33.088Z,101589.38
2023-01-22T04:17:02.447Z,101588.50
2023-01-22T04:19:28.676Z,101591.94
2023-01-22T04:21:54.891Z,101591.00
2023-01-22T04:24:21.118Z,101599.56
2023-01-22T04:26:47.363Z,101596.16
2023-01-22T04:29:14.639Z,101602.94
2023-01-22T04:31:40.928Z,101602.13
2023-01-22T04:34:07.253Z,101604.72
2023-01-22T04:36:34.469Z,101605.63
2023-01-22T04:39:00.730Z,101607.31
2023-01-22T04:41:26.963Z,101606.44
2023-01-22T04:43:53.212Z,101613.31
2023-01-22T04:46:19.490Z,101615.03
2023-01-22T04:48:48.649Z,101609.03
2023-01-22T04:51:14.989Z,101606.44
2023-01-22T04:53:41.251Z,101606.44
2023-01-22T04:56:07.466Z,101599.63
2023-01-22T04:58:33.798Z,101608.13
2023-01-22T05:01:00.019Z,101597.84
2023-01-22T05:03:26.314Z,101603.84
2023-01-22T05:05:52.548Z,101603.84
2023-01-22T05:08:18.759Z,101603.03
2023-01-22T05:10:47.864Z,101608.97
2023-01-22T05:13:15.548Z,101614.91
2023-01-22T05:15:41.790Z,101609.84
2023-01-22T05:18:08.073Z,101615.03
2023-01-22T05:20:34.330Z,101612.41
2023-01-22T05:23:00.549Z,101618.38
2023-01-22T05:25:27.005Z,101617.53
2023-01-22T05:27:53.226Z,101620.09
2023-01-22T05:30:19.735Z,101620.09
2023-01-22T05:32:46.091Z,101623.50
2023-01-22T05:35:13.476Z,101622.66
2023-01-22T05:37:39.710Z,101634.66
2023-01-22T05:40:06.007Z,101625.28
2023-01-22T05:42:32.229Z,101628.63
2023-01-22T05:45:01.559Z,101636.34
2023-01-22T05:47:28.187Z,101632.94
2023-01-22T05:49:54.435Z,101642.34
2023-01-22T05:52:20.662Z,101643.22
2023-01-22T05:54:47.087Z,101645.78
2023-01-22T05:57:13.341Z,101647.47
2023-01-22T05:59:39.671Z,101653.50
2023-01-22T06:02:05.936Z,101652.75
2023-01-22T06:04:32.138Z,101649.25
2023-01-22T06:06:58.404Z,101652.78
2023-01-22T06:09:24.612Z,101648.44
2023-01-22T06:11:50.878Z,101651.84
2023-01-22T06:14:17.117Z,101656.09
2023-01-22T06:16:43.598Z,101647.53
2023-01-22T06:19:09.833Z,101647.50
2023-01-22T06:21:36.069Z,101654.41
2023-01-22T06:24:02.261Z,101659.56
2023-01-22T06:26:28.589Z,101651.09
2023-01-22T06:28:54.865Z,101657.06
2023-01-22T06:31:21.411Z,101647.66
2023-01-22T06:33:50.678Z,101653.63
2023-01-22T06:36:16.884Z,101647.63
2023-01-22T06:38:43.162Z,101646.75
2023-01-22T06:41:09.298Z,101655.31
2023-01-22T06:43:35.459Z,101647.59
2023-01-22T06:46:02.789Z,101645.03
2023-01-22T06:48:28.982Z,101654.41
2023-01-22T06:50:55.181Z,101648.34
2023-01-22T06:53:21.458Z,101664.63
2023-01-22T06:55:47.641Z,101665.44
2023-01-22T06:58:13.832Z,101676.53
2023-01-22T07:00:40.026Z,101667.91
2023-01-22T07:03:06.215Z,101669.59
2023-01-22T07:05:32.407Z,101669.59
2023-01-22T07:07:58.626Z,101672.19
2023-01-22T07:10:24.816Z,101683.34
2023-01-22T07:12:51.023Z,101688.47
2023-01-22T07:15:17.293Z,101698.66
2023-01-22T07:17:45.591Z,101700.41
2023-01-22T07:20:11.742Z,101699.56
2023-01-22T07:22:37.951Z,101700.44
2023-01-22T07:25:04.079Z,101705.69
2023-01-22T07:27:30.286Z,101709.09
2023-01-22T07:29:59.309Z,101707.44
2023-01-22T07:32:25.505Z,101712.53
2023-01-22T07:34:51.738Z,101710.00
2023-01-22T07:37:17.983Z,101715.25
2023-01-22T07:39:44.166Z,101717.00
2023-01-22T07:42:10.379Z,101721.28
2023-01-22T07:44:36.605Z,101726.47
2023-01-22T07:47:02.845Z,101729.09
2023-01-22T07:49:29.116Z,101730.00
2023-01-22T07:51:55.347Z,101735.16
2023-01-22T07:54:21.584Z,101729.25
2023-01-22T07:56:47.817Z,101744.69
2023-01-22T07:59:14.059Z,101743.00
2023-01-22T08:01:40.276Z,101739.72
2023-01-22T08:04:06.515Z,101744.94
2023-01-22T08:06:32.762Z,101738.28
2023-01-22T08:08:58.980Z,101745.19
2023-01-22T08:11:25.220Z,101746.19
2023-01-22T08:13:51.448Z,101750.53
2023-01-22T08:16:21.210Z,101756.69
2023-01-22T08:18:47.494Z,101760.19
2023-01-22T08:21:13.755Z,101762.03
2023-01-22T08:23:40.111Z,101764.66
2023-01-22T08:26:06.371Z,101763.09
2023-01-22T08:28:32.675Z,101760.72
2023-01-22T08:30:58.903Z,101767.59
2023-01-22T08:33:25.168Z,101764.31
2023-01-22T08:35:51.427Z,101775.53
2023-01-22T08:38:17.641Z,101773.88
2023-01-22T08:40:43.829Z,101772.97
2023-01-22T08:43:10.091Z,101773.94
2023-01-22T08:45:36.372Z,101774.75
2023-01-22T08:48:06.794Z,101778.25
2023-01-22T08:50:33.086Z,101780.94
2023-01-22T08:52:59.299Z,101783.66
2023-01-22T08:55:25.565Z,101784.38
2023-01-22T08:57:51.777Z,101792.13
2023-01-22T09:00:18.120Z,101779.00
2023-01-22T09:02:44.503Z,101781.63
2023-01-22T09:05:10.713Z,101783.25
2023-01-22T09:07:36.987Z,101788.50
2023-01-22T09:10:03.217Z,101785.19
2023-01-22T09:12:29.440Z,101789.53
2023-01-22T09:14:55.655Z,101792.13
2023-01-22T09:17:21.873Z,101787.09
2023-01-22T09:19:48.105Z,101795.78
2023-01-22T09:22:14.322Z,101787.19
2023-01-22T09:24:40.523Z,101789.69
2023-01-22T09:27:06.761Z,101802.44
2023-01-22T09:29:33.086Z,101802.44
2023-01-22T09:32:02.107Z,101803.41
2023-01-22T09:34:28.343Z,101805.13
2023-01-22T09:36:54.599Z,101807.72
2023-01-22T09:39:20.850Z,101802.53
2023-01-22T09:41:47.091Z,101805.00
2023-01-22T09:44:19.225Z,101811.69
2023-01-22T09:46:45.454Z,101811.75
2023-01-22T09:49:11.674Z,101811.88
2023-01-22T09:51:37.859Z,101817.88
2023-01-22T09:54:04.148Z,101820.44
2023-01-22T09:56:35.282Z,101823.00
2023-01-22T09:59:01.574Z,101816.03
2023-01-22T10:01:27.727Z,101827.31
2023-01-22T10:03:54.076Z,101804.16
2023-01-22T10:06:20.275Z,101824.81
2023-01-22T10:08:46.495Z,101822.34
2023-01-22T10:11:12.757Z,101830.09
2023-01-22T10:13:38.978Z,101817.00
2023-01-22T10:16:05.190Z,101819.59
2023-01-22T10:18:31.453Z,101817.88
2023-01-22T10:20:57.676Z,101822.22
2023-01-22T10:23:23.950Z,101822.22
2023-01-22T10:25:50.188Z,101819.66
2023-01-22T10:28:18.304Z,101823.97
2023-01-22T10:30:44.910Z,101821.47
2023-01-22T10:33:11.398Z,101818.09
2023-01-22T10:35:37.625Z,101821.50
2023-01-22T10:38:04.104Z,101821.34
2023-01-22T10:40:30.257Z,101830.13
2023-01-22T10:42:56.465Z,101828.53
2023-01-22T10:45:22.815Z,101829.50
2023-01-22T10:47:49.049Z,101833.75
2023-01-22T10:50:15.359Z,101832.09
2023-01-22T10:52:41.616Z,101831.34
2023-01-22T10:55:07.861Z,101833.97
2023-01-22T10:57:34.253Z,101828.81
2023-01-22T11:00:06.567Z,101834.84
2023-01-22T11:02:32.835Z,101822.03
2023-01-22T11:04:59.097Z,101830.63
2023-01-22T11:07:25.490Z,101823.78
2023-01-22T11:09:51.757Z,101828.06
2023-01-22T11:12:18.025Z,101828.91
2023-01-22T11:14:44.234Z,101834.03
2023-01-22T11:17:10.435Z,101827.94
2023-01-22T11:19:37.725Z,101834.66
2023-01-22T11:22:04.006Z,101826.03
2023-01-22T11:24:30.266Z,101829.41
2023-01-22T11:26:56.557Z,101826.81
2023-01-22T11:29:22.806Z,101824.16
2023-01-22T11:31:49.139Z,101817.25
2023-01-22T11:34:15.408Z,101821.69
2023-01-22T11:36:41.694Z,101820.78
2023-01-22T11:39:07.928Z,101825.16
2023-01-22T11:41:34.163Z,101824.34
2023-01-22T11:44:00.412Z,101820.84
2023-01-22T11:46:26.691Z,101815.72
2023-01-22T11:48:52.960Z,101819.09
2023-01-22T11:51:19.274Z,101822.53
2023-01-22T11:53:45.572Z,101819.19
2023-01-22T11:56:14.886Z,101807.97
2023-01-22T11:58:41.114Z,101810.56
2023-01-22T12:01:07.574Z,101814.06
2023-01-22T12:03:33.813Z,101814.03
2023-01-22T12:06:00.222Z,101802.00
2023-01-22T12:08:26.464Z,101800.31
2023-01-22T12:10:54.867Z,101797.81
2023-01-22T12:13:21.318Z,101800.31
2023-01-22T12:15:47.585Z,101802.81
2023-01-22T12:18:13.796Z,101805.25
2023-01-22T12:20:40.114Z,101801.84
2023-01-22T12:23:06.334Z,101794.13
2023-01-22T12:25:32.569Z,101801.16
2023-01-22T12:27:59.145Z,101796.03
2023-01-22T12:30:25.380Z,101801.28
2023-01-22T12:32:51.655Z,101796.19
2023-01-22T12:35:19.409Z,101793.66
2023-01-22T12:37:45.571Z,101794.47
2023-01-22T12:40:11.850Z,101800.50
2023-01-22T12:42:41.149Z,101814.22
2023-01-22T12:45:07.393Z,101808.16
2023-01-22T12:47:33.545Z,101815.00
2023-01-22T12:49:59.694Z,101812.41
2023-01-22T12:52:25.854Z,101806.34
2023-01-22T12:54:52.016Z,101802.03
2023-01-22T12:57:18.183Z,101810.66
2023-01-22T12:59:44.378Z,101803.88
2023-01-22T13:02:10.575Z,101807.34
2023-01-22T13:04:36.804Z,101805.63
2023-01-22T13:07:02.992Z,101799.66
2023-01-22T13:09:29.206Z,101800.47
2023-01-22T13:11:55.324Z,101803.88
2023-01-22T13:14:21.494Z,101809.91
2023-01-22T13:16:47.745Z,101805.63
2023-01-22T13:19:13.875Z,101811.59
2023-01-22T13:21:40.057Z,101813.28
2023-01-22T13:24:06.177Z,101814.16
2023-01-22T13:26:32.343Z,101829.59
2023-01-22T13:28:58.495Z,101825.22
2023-01-22T13:31:24.805Z,101825.06
2023-01-22T13:33:51.022Z,101821.63
2023-01-22T13:36:17.166Z,101825.03
2023-01-22T13:38:43.416Z,101826.75
2023-01-22T13:41:09.626Z,101822.44
2023-01-22T13:43:35.845Z,101825.84
2023-01-22T13:46:02.050Z,101834.38
2023-01-22T13:48:28.250Z,101830.97
2023-01-22T13:50:54.472Z,101831.75
2023-01-22T13:53:20.718Z,101829.94
2023-01-22T13:55:46.881Z,101838.47
2023-01-22T13:58:13.068Z,101833.22
2023-01-22T14:00:39.246Z,101838.28
2023-01-22T14:03:05.418Z,101842.59
2023-01-22T14:05:31.642Z,101843.41
2023-01-22T14:07:57.845Z,101839.97
2023-01-22T14:10:33.004Z,101836.53
2023-01-22T14:12:59.164Z,101836.53
2023-01-22T14:15:25.365Z,101832.25
2023-01-22T14:17:51.536Z,101836.53
2023-01-22T14:20:17.972Z,101839.91
2023-01-22T14:22:44.398Z,101833.06
2023-01-22T14:25:10.564Z,101833.97
2023-01-22T14:27:36.758Z,101845.13
2023-01-22T14:30:05.211Z,101846.84
2023-01-22T14:32:31.373Z,101848.59
2023-01-22T14:34:57.563Z,101849.44
2023-01-22T14:37:23.727Z,101851.06
2023-01-22T14:39:49.948Z,101848.47
2023-01-22T14:42:16.122Z,101849.34
2023-01-22T14:44:42.369Z,101850.16
2023-01-22T14:49:48.809Z,101856.97
2023-01-22T14:52:14.987Z,101858.59
2023-01-22T14:54:44.241Z,101852.59
2023-01-22T14:57:10.505Z,101855.16
2023-01-22T14:59:36.665Z,101855.09
2023-01-22T15:02:02.865Z,101864.56
2023-01-22T15:04:32.076Z,101863.66
2023-01-22T15:06:58.291Z,101861.09
2023-01-22T15:09:38.400Z,101865.38
2023-01-22T15:12:04.632Z,101868.75
2023-01-22T15:14:30.759Z,101861.84
2023-01-22T15:16:56.904Z,101868.69
2023-01-22T15:19:23.066Z,101869.53
2023-01-22T15:21:52.444Z,101875.53
2023-01-22T15:24:18.587Z,101877.22
2023-01-22T15:26:44.743Z,101888.34
2023-01-22T15:29:10.863Z,101887.47
2023-01-22T15:31:37.120Z,101892.63
2023-01-22T15:34:04.725Z,101896.91
2023-01-22T15:36:30.856Z,101896.84
2023-01-22T15:38:57.016Z,101886.53
2023-01-22T15:41:23.235Z,101889.13
2023-01-22T15:43:49.470Z,101897.75
2023-01-22T15:46:15.707Z,101896.88
2023-01-22T15:48:48.427Z,101897.66
2023-01-22T15:51:14.690Z,101897.59
2023-01-22T15:53:40.907Z,101904.53
2023-01-22T15:56:12.266Z,101901.06
2023-01-22T15:58:38.432Z,101895.91
2023-01-22T16:01:06.561Z,101894.22
2023-01-22T16:03:32.741Z,101895.97
2023-01-22T16:05:59.058Z,101896.84
2023-01-22T16:08:34.343Z,101900.19
2023-01-22T16:11:00.538Z,101913.88
2023-01-22T16:13:28.726Z,101901.03
2023-01-22T16:15:54.899Z,101906.19
2023-01-22T16:18:21.364Z,101910.41
2023-01-22T16:20:47.839Z,101911.22
2023-01-22T16:23:14.039Z,101913.00
2023-01-22T16:25:40.181Z,101914.66
2023-01-22T16:28:15.496Z,101918.88
2023-01-22T16:30:42.717Z,101915.44
2023-01-22T16:33:11.211Z,101918.88
2023-01-22T16:35:37.398Z,101924.09
2023-01-22T16:38:03.727Z,101924.13
2023-01-22T16:40:29.896Z,101923.25
2023-01-22T16:42:56.101Z,101931.00
2023-01-22T16:45:22.326Z,101928.41
2023-01-22T16:47:49.203Z,101931.03
2023-01-22T16:50:15.323Z,101941.28
2023-01-22T16:52:41.604Z,101943.00
2023-01-22T16:55:07.773Z,101942.97
2023-01-22T16:57:33.918Z,101941.25
2023-01-22T17:00:00.236Z,101939.47
2023-01-22T17:02:29.258Z,101942.97
2023-01-22T17:04:55.394Z,101947.22
2023-01-22T17:07:33.131Z,101944.66
2023-01-22T17:10:00.377Z,101953.22
2023-01-22T17:12:27.636Z,101954.94
2023-01-22T17:14:53.788Z,101954.09
2023-01-22T17:17:19.994Z,101957.56
2023-01-22T17:19:46.261Z,101970.34
2023-01-22T17:22:12.460Z,101963.44
2023-01-22T17:24:40.067Z,101967.78
2023-01-22T17:27:06.263Z,101971.16
2023-01-22T17:29:32.601Z,101971.13
2023-01-22T17:32:02.114Z,101977.94
2023-01-22T17:34:28.296Z,101966.78
2023-01-22T17:36:54.493Z,101984.81
2023-01-22T17:39:23.831Z,101990.78
2023-01-22T17:41:49.973Z,101983.97
2023-01-22T17:44:16.181Z,101984.81
2023-01-22T17:46:42.622Z,101979.69
2023-01-22T17:49:08.844Z,101978.88
2023-01-22T17:51:35.082Z,101983.13
2023-01-22T17:54:01.218Z,101980.53
2023-01-22T17:56:27.444Z,101986.50
2023-01-22T17:58:53.574Z,101985.56
2023-01-22T18:01:20.148Z,101991.56
2023-01-22T18:03:46.340Z,101990.63
2023-01-22T18:06:15.005Z,101992.41
2023-01-22T18:08:41.468Z,101999.19
2023-01-22T18:11:07.674Z,102001.66
2023-01-22T18:13:34.252Z,102003.41
2023-01-22T18:16:00.531Z,101999.09
2023-01-22T18:18:26.768Z,102006.88
2023-01-22T18:20:52.986Z,102004.31
2023-01-22T18:23:23.769Z,102012.00
2023-01-22T18:25:49.931Z,102006.00
2023-01-22T18:28:18.143Z,102013.75
2023-01-22T18:30:44.425Z,102014.53
2023-01-22T18:33:10.633Z,102013.72
2023-01-22T18:35:36.833Z,102018.06
2023-01-22T18:38:04.335Z,102024.06
2023-01-22T18:40:30.556Z,102019.78
2023-01-22T18:42:56.791Z,102018.88
2023-01-22T18:45:22.992Z,102018.88
2023-01-22T18:47:49.153Z,102024.84
2023-01-22T18:50:15.306Z,102027.44
2023-01-22T18:52:41.604Z,102032.59
2023-01-22T18:55:08.884Z,102025.63
2023-01-22T18:57:35.019Z,102029.06
2023-01-22T19:00:01.170Z,102026.50
2023-01-22T19:02:27.396Z,102035.03
2023-01-22T19:04:53.597Z,102027.31
2023-01-22T19:07:19.764Z,102036.69
2023-01-22T19:09:45.919Z,102029.94
2023-01-22T19:12:12.177Z,102034.16
2023-01-22T19:14:38.426Z,102039.28
2023-01-22T19:17:04.629Z,102038.44
2023-01-22T19:19:30.798Z,102039.25
2023-01-22T19:21:56.977Z,102036.63
2023-01-22T19:24:23.192Z,102044.31
2023-01-22T19:26:51.304Z,102034.00
2023-01-22T19:29:24.370Z,102045.25
2023-01-22T19:31:50.581Z,102052.03
2023-01-22T19:34:16.880Z,102056.34
2023-01-22T19:36:43.141Z,102059.00
2023-01-22T19:39:09.335Z,102065.03
2023-01-22T19:41:35.532Z,102058.19
2023-01-22T19:44:06.676Z,102066.03
2023-01-22T19:46:32.860Z,102067.72
2023-01-22T19:48:59.130Z,102071.16
2023-01-22T19:51:25.672Z,102067.75
2023-01-22T19:53:53.830Z,102070.38
2023-01-22T19:56:23.715Z,102080.78
2023-01-22T20:01:40.247Z,102075.53
2023-01-22T20:04:06.457Z,102080.75
2023-01-22T20:06:32.653Z,102079.00
2023-01-22T20:09:05.307Z,102082.47
2023-01-22T20:11:31.528Z,102076.41
2023-01-22T20:14:00.825Z,102079.81
2023-01-22T20:16:30.169Z,102078.06
2023-01-22T20:18:59.386Z,102084.06
2023-01-22T20:21:25.620Z,102086.66
2023-01-22T20:23:51.829Z,102085.75
2023-01-22T20:26:21.113Z,102085.00
2023-01-22T20:28:47.385Z,102087.63
2023-01-22T20:31:13.739Z,102079.81
2023-01-22T20:33:42.933Z,102079.81
2023-01-22T20:36:10.334Z,102075.50
2023-01-22T20:38:39.227Z,102078.94
2023-01-22T20:41:08.228Z,102086.72
2023-01-22T20:43:34.833Z,102078.19
2023-01-22T20:46:04.573Z,102074.78
2023-01-22T20:48:30.794Z,102082.50
2023-01-22T20:50:57.062Z,102083.31
2023-01-22T20:53:25.830Z,102091.03
2023-01-22T20:55:53.302Z,102090.16
2023-01-22T20:58:20.475Z,102104.75
2023-01-22T21:00:46.773Z,102104.75
2023-01-22T21:03:14.591Z,102095.41
2023-01-22T21:05:40.862Z,102092.81
2023-01-22T21:08:07.229Z,102091.88
2023-01-22T21:10:33.630Z,102087.50
2023-01-22T21:13:02.754Z,102093.44
2023-01-22T21:15:28.966Z,102097.69
2023-01-22T21:17:55.165Z,102089.97
2023-01-22T21:20:23.736Z,102083.09
2023-01-22T21:22:49.953Z,102086.44
2023-01-22T21:25:19.259Z,102088.09
2023-01-22T21:27:45.532Z,102085.47
2023-01-22T21:30:12.875Z,102089.75
2023-01-22T21:32:39.024Z,102092.31
2023-01-22T21:35:06.455Z,102088.94
2023-01-22T21:37:33.019Z,102090.66
2023-01-22T21:40:02.279Z,102093.16
2023-01-22T21:42:28.716Z,102100.84
2023-01-22T21:44:55.013Z,102101.66
2023-01-22T21:47:21.523Z,102099.94
2023-01-22T21:49:47.731Z,102095.63
2023-01-22T21:52:17.378Z,102102.44
2023-01-22T21:54:43.704Z,102100.75
2023-01-22T21:57:11.072Z,102105.81
2023-01-22T21:59:37.441Z,102101.56
2023-01-22T22:02:03.669Z,102097.34
2023-01-22T22:04:29.938Z,102097.28
2023-01-22T22:07:00.577Z,102105.00
2023-01-22T22:09:27.446Z,102105.06
2023-01-22T22:11:54.624Z,102112.75
2023-01-22T22:14:25.835Z,102112.81
2023-01-22T22:16:52.083Z,102114.56
2023-01-22T22:19:18.503Z,102112.88
2023-01-22T22:21:44.880Z,102115.44
2023-01-22T22:24:11.163Z,102114.66
2023-01-22T22:26:37.352Z,102106.94
2023-01-22T22:29:04.509Z,102102.75
2023-01-22T22:31:33.078Z,102108.69
2023-01-22T22:33:59.613Z,102114.66
2023-01-22T22:36:29.171Z,102113.72
2023-01-22T22:38:55.371Z,102112.09
2023-01-22T22:41:21.800Z,102117.22
2023-01-22T22:54:44.533Z,102128.59
2023-01-22T22:57:13.541Z,102137.22
2023-01-22T22:59:42.570Z,102128.59
2023-01-22T23:02:08.764Z,102134.59
2023-01-22T23:04:34.946Z,102125.16
2023-01-22T23:07:01.247Z,102130.28
2023-01-22T23:09:27.609Z,102132.06
2023-01-22T23:11:53.813Z,102133.69
2023-01-22T23:14:20.059Z,102132.81
2023-01-22T23:16:46.256Z,102137.97
2023-01-22T23:19:12.478Z,102132.00
2023-01-22T23:21:43.039Z,102138.81
2023-01-22T23:24:09.250Z,102142.19
2023-01-22T23:26:35.467Z,102142.16
2023-01-22T23:29:01.616Z,102139.50
2023-01-22T23:31:27.952Z,102130.88
2023-01-22T23:33:55.593Z,102129.97
2023-01-22T23:36:21.803Z,102133.41
2023-01-22T23:38:47.937Z,102125.69
2023-01-22T23:41:14.147Z,102135.94
2023-01-22T23:43:40.483Z,102141.88
2023-01-22T23:46:06.740Z,102132.38
2023-01-22T23:48:32.956Z,102136.72
2023-01-22T23:51:01.383Z,102143.50
2023-01-22T23:53:27.561Z,102147.69
2023-01-22T23:55:53.786Z,102147.69
2023-01-22T23:58:22.525Z,102146.78
